Flight Track Log - Related Links

Times and Time Zones

All times are in EST time to prevent confusion due to time zone crossing. See the N591CA flight status page for this flight to view local times or setup timezone preferences in your user account.

Time Position Orientation Groundspeed Altitude Reporting Facility
EST Latitude Longitude Course Direction KTS MPH feet Rate Location/Type
Fri 12:10:27 PM 39.7000 -86.7500 360° North 143 165 3,000  Level Indianapolis TRACON
Fri 12:10:52 PM 39.7167 -86.7500 360° North 154 177 3,000 706 Level Indianapolis TRACON
Fri 12:11:52 PM 39.7333 -86.7167 57° Northeast 112 129 4,000 989 Climbing Indianapolis TRACON
Fri 12:12:23 PM 39.7519 -86.7161 North 117 135 4,500 857 Climbing Chicago Center
Fri 12:13:16 PM 39.7683 -86.7011 35° Northeast 102 117 5,200 783 Climbing Indianapolis Center
Fri 12:14:18 PM 39.7897 -86.6836 32° Northeast 95 109 6,000 823 Climbing Indianapolis Center
Fri 12:15:20 PM 39.8108 -86.6664 32° Northeast 92 106 6,900 484 Climbing Indianapolis Center
Fri 12:16:22 PM 39.8361 -86.6436 35° Northeast 105 121 7,000 48 Climbing Indianapolis Center
Fri 12:17:24 PM 39.8742 -86.6139 31° Northeast 126 145 7,000  Level Indianapolis Center
Fri 12:18:26 PM 39.9047 -86.5878 33° Northeast 130 150 7,000  Level Indianapolis Center
Fri 12:19:28 PM 39.9356 -86.5606 34° Northeast 132 152 7,000  Level Indianapolis Center
Fri 12:20:30 PM 39.9664 -86.5350 32° Northeast 132 152 7,000 48 Level Indianapolis Center
Fri 12:21:32 PM 39.9978 -86.5094 32° Northeast 132 152 7,100 435 Climbing Indianapolis Center
Fri 12:22:34 PM 40.0206 -86.4886 35° Northeast 117 135 7,900 774 Climbing Indianapolis Center
Fri 12:23:36 PM 40.0447 -86.4689 32° Northeast 95 109 8,700 532 Climbing Indianapolis Center
Fri 12:24:38 PM 40.0675 -86.4500 32° Northeast 93 107 9,000 144 Climbing Indianapolis Center
Fri 12:25:41 PM 40.0975 -86.4253 32° Northeast 110 127 9,000  Level Indianapolis Center
Fri 12:26:43 PM 40.1272 -86.3994 34° Northeast 121 139 9,000  Level Indianapolis Center
Fri 12:27:55 PM 40.1633 -86.3694 32° Northeast 126 145 9,000  Level Chicago Center
Fri 12:28:57 PM 40.1919 -86.3447 33° Northeast 125 144 9,000  Level Chicago Center
Fri 12:29:59 PM 40.2197 -86.3219 32° Northeast 120 138 9,000  Level Chicago Center
Fri 12:30:26 PM 40.2375 -86.3064 34° Northeast 123 142 9,000  Level Chicago Center
Fri 12:31:01 PM 40.2544 -86.2917 34° Northeast 124 143 9,000  Level Chicago Center
Fri 12:31:26 PM 40.2653 -86.2833 30° Northeast 127 146 9,000  Level Chicago Center
Fri 12:32:03 PM 40.2839 -86.2669 34° Northeast 126 145 9,000  Level Chicago Center
Fri 12:32:27 PM 40.2953 -86.2578 32° Northeast 125 144 9,000  Level Chicago Center
Fri 12:33:05 PM 40.3122 -86.2431 34° Northeast 123 142 9,000  Level Chicago Center
Fri 12:33:28 PM 40.3233 -86.2350 29° Northeast 120 138 9,000  Level Chicago Center
Fri 12:34:07 PM 40.3400 -86.2183 37° Northeast 122 140 9,000  Level Chicago Center
Fri 12:34:28 PM 40.3514 -86.2092 32° Northeast 121 139 9,000  Level Chicago Center
Fri 12:35:09 PM 40.3689 -86.1958 30° Northeast 121 139 9,000  Level Chicago Center
Fri 12:35:29 PM 40.3814 -86.1836 37° Northeast 119 137 9,000  Level Chicago Center
Fri 12:36:11 PM 40.3961 -86.1717 32° Northeast 121 139 9,000  Level Chicago Center
Fri 12:36:29 PM 40.4072 -86.1606 37° Northeast 118 136 9,000  Level Chicago Center
Fri 12:37:13 PM 40.4286 -86.1447 29° Northeast 116 133 9,000  Level Chicago Center
Fri 12:37:30 PM 40.4331 -86.1319 65° Northeast 127 146 9,000  Level Chicago Center
Fri 12:38:16 PM 40.4431 -86.0961 70° East 145 167 9,000  Level Chicago Center
Fri 12:38:31 PM 40.4450 -86.0833 79° East 144 166 9,000  Level Chicago Center
Fri 12:39:18 PM 40.4556 -86.0483 68° East 143 165 9,000  Level Chicago Center
Fri 12:39:31 PM 40.4592 -86.0350 70° East 140 161 9,000  Level Chicago Center
Fri 12:40:20 PM 40.4678 -86.0006 72° East 140 161 9,000  Level Chicago Center
Fri 12:40:32 PM 40.4708 -85.9892 71° East 138 159 9,000  Level Chicago Center
Fri 12:41:22 PM 40.4806 -85.9531 70° East 139 160 9,000  Level Chicago Center
Fri 12:41:32 PM 40.4850 -85.9381 69° East 138 159 9,000  Level Chicago Center
Fri 12:42:24 PM 40.4956 -85.8969 71° East 137 158 9,000  Level Chicago Center
Fri 12:42:33 PM 40.4969 -85.8894 76° East 136 157 9,000  Level Chicago Center
Fri 12:43:26 PM 40.5081 -85.8500 70° East 137 158 9,000  Level Chicago Center
Fri 12:43:34 PM 40.5086 -85.8436 83° East 136 157 9,000  Level Chicago Center
Fri 12:44:28 PM 40.5197 -85.8025 70° East 136 157 9,000  Level Chicago Center
Fri 12:44:34 PM 40.5225 -85.7950 64° Northeast 137 158 9,000  Level Chicago Center
Fri 12:45:30 PM 40.5319 -85.7544 73° East 138 159 9,000  Level Chicago Center
Fri 12:45:35 PM 40.5344 -85.7492 58° Northeast 136 157 9,000  Level Chicago Center
Fri 12:46:33 PM 40.5447 -85.7081 72° East 137 158 9,000  Level Chicago Center
Fri 12:46:35 PM 40.5461 -85.7006 76° East 137 158 9,000  Level Chicago Center
Fri 12:47:34 PM 40.5572 -85.6600 70° East 138 159 9,000  Level Chicago Center
Fri 12:48:36 PM 40.5733 -85.6019 70° East 140 161 9,000 48 Level Chicago Center
Fri 12:49:38 PM 40.5856 -85.5517 72° East 143 165 9,100 48 Climbing Chicago Center
Fri 12:50:41 PM 40.5989 -85.5044 70° East 141 162 9,100  Level Chicago Center
Fri 12:51:43 PM 40.6111 -85.4561 72° East 140 161 9,100  Level Chicago Center
Fri 12:52:45 PM 40.6239 -85.4056 72° East 144 166 9,100  Level Chicago Center
Fri 12:53:47 PM 40.6400 -85.3458 70° East 144 166 9,100  Level Chicago Center
Fri 12:54:49 PM 40.6528 -85.2964 71° East 144 166 9,100  Level Chicago Center
Fri 12:55:51 PM 40.6647 -85.2497 71° East 147 169 9,100  Level Chicago Center
Fri 12:56:53 PM 40.6800 -85.1894 72° East 146 168 9,100  Level Chicago Center
Fri 12:57:55 PM 40.6936 -85.1406 70° East 144 166 9,100  Level Chicago Center
Fri 12:58:58 PM 40.7067 -85.0903 71° East 145 167 9,100  Level Chicago Center
Fri 12:59:59 PM 40.7197 -85.0400 71° East 146 168 9,100  Level Chicago Center
Fri 01:01:02 PM 40.7322 -84.9906 72° East 144 166 9,100  Level Chicago Center
Fri 01:02:04 PM 40.7447 -84.9397 72° East 145 167 9,100  Level Chicago Center
Fri 01:03:06 PM 40.7603 -84.8794 71° East 146 168 9,100  Level Chicago Center
Fri 01:04:08 PM 40.7739 -84.8281 71° East 148 170 9,100 -48 Level Chicago Center
Fri 01:05:10 PM 40.7878 -84.7778 70° East 148 170 9,000 -48 Descending Chicago Center
Fri 01:06:12 PM 40.8008 -84.7275 71° East 146 168 9,000  Level Chicago Center
Fri 01:07:14 PM 40.8136 -84.6756 72° East 148 170 9,000  Level Chicago Center
Fri 01:08:16 PM 40.8297 -84.6125 71° East 151 174 9,000  Level Chicago Center
Fri 01:09:18 PM 40.8425 -84.5614 72° East 150 173 9,000 48 Level Chicago Center
Fri 01:10:20 PM 40.8553 -84.5106 72° East 148 170 9,100 48 Climbing Chicago Center
Fri 01:11:22 PM 40.8683 -84.4586 72° East 148 170 9,100  Level Chicago Center
Fri 01:12:24 PM 40.8817 -84.4056 72° East 150 173 9,100  Level Chicago Center
Fri 01:13:27 PM 40.8950 -84.3539 71° East 150 173 9,100  Level Chicago Center
Fri 01:14:29 PM 40.9103 -84.2917 72° East 149 171 9,100  Level Chicago Center
Fri 01:15:31 PM 40.9233 -84.2403 71° East 149 171 9,100 -1,016 Level Chicago Center
Fri 01:16:33 PM 40.9356 -84.1864 73° East 150 173 7,000  Descending Chicago Center
Fri 01:17:35 PM 40.9494 -84.1353 70° East 150 173 9,100 1,016 Climbing Chicago Center
Fri 01:18:37 PM 40.9633 -84.0811 71° East 152 175 9,100  Level Chicago Center
Fri 01:19:39 PM 40.9758 -84.0308 72° East 150 173 9,100  Level Chicago Center
Fri 01:21:18 PM 40.9981 -83.9394 72° East 147 169 9,100 -33 Level Chicago Center
Fri 01:22:40 PM 41.0128 -83.8700 74° East 147 169 9,000 -42 Descending Cleveland Center
Fri 01:23:42 PM 41.0283 -83.8194 68° East 147 169 9,000  Level Cleveland Center
Fri 01:24:44 PM 41.0406 -83.7667 73° East 147 169 9,000  Level Cleveland Center
Fri 01:25:46 PM 41.0522 -83.7133 74° East 150 173 9,000  Level Cleveland Center
Fri 01:26:48 PM 41.0658 -83.6564 72° East 145 167 9,000  Level Cleveland Center
Fri 01:27:51 PM 41.0781 -83.6047 73° East 147 169 9,000  Level Cleveland Center
Fri 01:28:52 PM 41.0894 -83.5544 73° East 145 167 9,000  Level Cleveland Center
Fri 01:29:54 PM 41.1036 -83.4997 71° East 144 166 9,000  Level Cleveland Center
Fri 01:30:57 PM 41.1147 -83.4467 74° East 148 170 9,000  Level Cleveland Center
Fri 01:31:59 PM 41.1267 -83.3956 73° East 145 167 9,000  Level Cleveland Center
Fri 01:33:01 PM 41.1394 -83.3447 72° East 148 170 9,000  Level Cleveland Center
Fri 01:34:03 PM 41.1517 -83.2942 72° East 146 168 9,000  Level Cleveland Center
Fri 01:35:05 PM 41.1625 -83.2472 73° East 137 158 9,000  Level Cleveland Center
Fri 01:36:07 PM 41.1769 -83.1847 73° East 145 167 9,000  Level Cleveland Center
Fri 01:37:09 PM 41.1897 -83.1325 72° East 145 167 9,000  Level Cleveland Center
Fri 01:38:11 PM 41.2022 -83.0811 72° East 146 168 9,000  Level Cleveland Center
Fri 01:39:13 PM 41.2136 -83.0297 74° East 144 166 9,000  Level Cleveland Center
Fri 01:40:15 PM 41.2261 -82.9769 73° East 147 169 9,000  Level Cleveland Center
Fri 01:41:17 PM 41.2378 -82.9256 73° East 144 166 9,000 64 Level Cleveland Center
Fri 01:41:49 PM 41.2453 -82.8986 70° East 145 167 9,100  Climbing Cleveland Center
Fri 01:42:19 PM 41.2497 -82.8742 76° East 145 167 9,000  Descending Cleveland Center
Fri 01:42:44 PM 41.2564 -82.8503 70° East 145 167 9,100  Climbing Cleveland Center
Fri 01:43:22 PM 41.2636 -82.8139 75° East 146 168 9,000  Descending Cleveland Center
Fri 01:43:50 PM 41.2683 -82.7939 73° East 146 168 9,100  Climbing Cleveland Center
Fri 01:44:24 PM 41.2761 -82.7619 72° East 147 169 9,000  Descending Cleveland Center
Fri 01:44:45 PM 41.2794 -82.7486 72° East 145 167 9,100  Climbing Cleveland Center
Fri 01:45:26 PM 41.2872 -82.7122 74° East 141 162 9,000  Descending Cleveland Center
Fri 01:45:45 PM 41.2928 -82.6978 63° Northeast 141 162 9,100  Climbing Cleveland Center
Fri 01:46:28 PM 41.2997 -82.6606 76° East 144 166 9,000  Descending Cleveland Center
Fri 01:46:40 PM 41.3017 -82.6519 73° East 143 165 9,100  Climbing Cleveland Center
Fri 01:47:30 PM 41.3106 -82.6111 74° East 139 160 9,000  Descending Cleveland Center
Fri 01:47:47 PM 41.3158 -82.5933 68° East 140 161 9,100  Climbing Cleveland Center
Fri 01:48:32 PM 41.3222 -82.5592 76° East 142 163 9,000  Descending Cleveland Center
Fri 01:48:41 PM 41.3264 -82.5503 58° Northeast 147 169 9,100  Climbing Cleveland Center
Fri 01:49:34 PM 41.3350 -82.5072 75° East 146 168 9,000 -109 Descending Cleveland Center
Fri 01:49:36 PM 41.3378 -82.4994 65° Northeast 149 171 9,000 -871 Level Cleveland Center
Fri 01:50:36 PM 41.3553 -82.4406 68° East 164 189 8,100 -787 Descending Cleveland Center
Fri 01:50:37 PM 41.3558 -82.4439 283° West 171 197 8,200 -590 Climbing Cleveland Center
Fri 01:51:37 PM 41.3742 -82.3856 67° East 168 193 7,500 -787 Descending Cleveland Center
Fri 01:51:38 PM 41.3736 -82.3836 111° Southeast 167 192 7,400 -762 Descending Cleveland Center
Fri 01:52:40 PM 41.3919 -82.3261 67° East 167 192 6,700 -629 Descending Cleveland Center
Fri 01:53:42 PM 41.4111 -82.2728 64° Northeast 162 186 6,100 -462 Descending Cleveland Center
Fri 01:53:45 PM 41.4144 -82.2725 North 157 181 6,200 -484 Climbing Cleveland Center
Fri 01:54:44 PM 41.4322 -82.2219 65° Northeast 156 180 5,600 -537 Descending Cleveland Center
Fri 01:54:52 PM 41.4369 -82.2122 57° Northeast 155 178 5,600 -484 Level Cleveland Center
Fri 01:55:46 PM 41.4525 -82.1708 63° Northeast 155 178 5,100 -436 Descending Cleveland Center
Fri 01:55:47 PM 41.4536 -82.1703 21° North 156 180 5,200 -387 Climbing Cleveland Center
Fri 01:56:48 PM 41.4756 -82.1153 62° Northeast 152 175 4,700 -484 Descending Cleveland Center
Fri 01:56:49 PM 41.4719 -82.1194 221° Southwest 154 177 4,700 -400 Level Cleveland Center
Fri 01:57:48 PM 41.4950 -82.0656 60° Northeast 154 177 4,300 -387 Descending Cleveland Center
Fri 01:57:51 PM 41.4919 -82.0689 219° Southwest 153 176 4,300 -492 Level Cleveland Center
Fri 01:58:49 PM 41.5167 -82.0133 59° Northeast 157 181 3,800 -581 Descending Cleveland Center
Fri 01:58:53 PM 41.5158 -82.0086 103° East 154 177 3,700 -436 Descending Cleveland Center
Fri 01:59:44 PM 41.5358 -81.9661 58° Northeast 158 182 3,400 -484 Descending Cleveland Center
Fri 01:59:55 PM 41.5364 -81.9567 86° East 156 180 3,200 -295 Descending Cleveland Center
Fri 02:00:45 PM 41.5558 -81.9106 61° Northeast 167 192 3,100 -194 Descending Cleveland Center
Fri 02:00:57 PM 41.5578 -81.9017 74° East 160 184 3,000 -100 Descending Cleveland Center
Fri 02:01:45 PM 41.5750 -81.8606 61° Northeast 158 182 3,000  Level Cleveland Center
Fri 02:01:59 PM 41.5769 -81.8489 77° East 159 183 3,000 98 Level Cleveland Center
Fri 02:02:46 PM 41.5986 -81.8114 52° Northeast 150 173 3,100 -97 Climbing Cleveland Center
Fri 02:03:01 PM 41.6000 -81.8019 79° East 154 177 2,900  Descending Cleveland Center
Fri 02:03:59 PM 41.6244 -81.7569 54° Northeast 138 159 3,100 97 Climbing Cleveland Center
Fri 02:04:03 PM 41.6228 -81.7589 221° Southwest 146 168 3,000  Descending Cleveland Center
Fri 02:04:48 PM 41.6261 -81.7150 84° East 142 163 3,100  Climbing Cleveland Center
Fri 02:05:05 PM 41.6228 -81.7058 116° Southeast 142 163 3,000 -100 Descending Cleveland Center
Fri 02:05:48 PM 41.6122 -81.6597 107° East 163 188 3,000 -97 Level Cleveland Center
Fri 02:06:07 PM 41.6089 -81.6497 114° Southeast 152 175 2,900 -98 Descending Cleveland Center
Fri 02:06:49 PM 41.6008 -81.6019 103° East 164 189 2,900 -290 Level Cleveland Center
Fri 02:07:09 PM 41.5961 -81.5794 106° East 160 184 2,600 -689 Descending Cleveland Center
Fri 02:07:50 PM 41.5961 -81.5369 90° East 174 200 2,200 -581 Descending Cleveland Center
Fri 02:08:11 PM 41.5936 -81.5275 109° East 163 188 2,000 -327 Descending Cleveland Center
Fri 02:08:45 PM 41.5894 -81.4939 99° East 136 157 1,900 -581 Descending Cleveland Center
Fri 02:09:13 PM 41.5794 -81.4808 136° Southeast 131 151 1,400 -700 Descending Cleveland Center
Fri 02:09:45 PM 41.5700 -81.4769 163° South 80 92 1,200 -190 Descending Cleveland Center
Fri 02:10:16 PM 41.5581 -81.4703 157° South 118 136 1,200  Level Cleveland Center
Fri 02:12:00 PM 41.5500 -81.4833 270° West  Level FlightAware Approximate
Fri 02:19:00 PM 41.5651 -81.4864 270° West  Level Estimated

Login

Don't have an account? Register now (free) for customized features, flight alerts, and more!